createdAt,value
2022-11-27T00:00:48.859Z,39.32
2022-11-27T00:01:48.844Z,39.62
2022-11-27T00:02:48.877Z,39.51
2022-11-27T00:03:48.897Z,39.54
2022-11-27T00:04:48.850Z,39.32
2022-11-27T00:05:48.761Z,39.62
2022-11-27T00:06:48.750Z,39.51
2022-11-27T00:07:48.835Z,39.62
2022-11-27T00:08:48.766Z,39.62
2022-11-27T00:09:48.763Z,39.66
2022-11-27T00:10:48.723Z,39.51
2022-11-27T00:11:48.741Z,39.36
2022-11-27T00:12:48.674Z,39.40
2022-11-27T00:13:48.658Z,39.58
2022-11-27T00:14:51.283Z,39.66
2022-11-27T00:15:48.699Z,39.62
2022-11-27T00:16:48.732Z,39.47
2022-11-27T00:17:48.639Z,39.66
2022-11-27T00:18:48.605Z,39.47
2022-11-27T00:19:48.693Z,39.47
2022-11-27T00:20:48.620Z,39.62
2022-11-27T00:21:48.572Z,39.51
2022-11-27T00:22:48.556Z,39.47
2022-11-27T00:23:48.565Z,39.62
2022-11-27T00:24:48.508Z,39.40
2022-11-27T00:25:48.517Z,39.36
2022-11-27T00:26:48.486Z,39.47
2022-11-27T00:27:48.513Z,39.62
2022-11-27T00:28:48.474Z,39.32
2022-11-27T00:29:48.496Z,39.28
2022-11-27T00:30:48.499Z,39.51
2022-11-27T00:31:48.532Z,39.47
2022-11-27T00:32:48.453Z,39.25
2022-11-27T00:33:48.393Z,39.28
2022-11-27T00:34:48.428Z,39.43
2022-11-27T00:35:48.462Z,39.17
2022-11-27T00:36:48.590Z,39.36
2022-11-27T00:37:48.347Z,39.40
2022-11-27T00:38:48.421Z,39.47
2022-11-27T00:39:48.322Z,39.28
2022-11-27T00:40:48.328Z,39.43
2022-11-27T00:41:48.317Z,39.36
2022-11-27T00:42:48.291Z,39.51
2022-11-27T00:43:48.255Z,39.58
2022-11-27T00:44:48.255Z,39.54
2022-11-27T00:45:48.256Z,39.40
2022-11-27T00:46:48.254Z,39.36
2022-11-27T00:47:48.214Z,39.25
2022-11-27T00:48:48.212Z,39.43
2022-11-27T00:49:48.313Z,39.40
2022-11-27T00:50:48.375Z,39.43
2022-11-27T00:51:48.216Z,39.43
2022-11-27T00:52:48.148Z,39.36
2022-11-27T00:53:48.144Z,39.28
2022-11-27T00:54:48.117Z,39.32
2022-11-27T00:55:48.119Z,39.54
2022-11-27T00:56:48.098Z,39.40
2022-11-27T00:57:48.146Z,39.40
2022-11-27T00:58:48.098Z,39.58
2022-11-27T00:59:48.140Z,39.47
2022-11-27T01:00:48.098Z,39.32
2022-11-27T01:01:48.101Z,39.32
2022-11-27T01:02:48.103Z,39.40
2022-11-27T01:03:48.036Z,39.36
2022-11-27T01:04:47.991Z,39.32
2022-11-27T01:05:48.001Z,39.32
2022-11-27T01:06:47.973Z,39.40
2022-11-27T01:07:48.046Z,39.28
2022-11-27T01:08:47.959Z,39.28
2022-11-27T01:09:48.066Z,39.40
2022-11-27T01:10:53.329Z,39.28
2022-11-27T01:11:47.968Z,39.54
2022-11-27T01:12:47.898Z,39.51
2022-11-27T01:13:47.871Z,39.54
2022-11-27T01:14:47.840Z,39.51
2022-11-27T01:15:47.985Z,39.47
2022-11-27T01:16:47.828Z,39.47
2022-11-27T01:17:47.815Z,39.40
2022-11-27T01:18:47.797Z,39.66
2022-11-27T01:19:47.860Z,39.66
2022-11-27T01:20:47.773Z,39.66
2022-11-27T01:21:47.788Z,39.62
2022-11-27T01:22:47.751Z,39.73
2022-11-27T01:23:47.749Z,39.69
2022-11-27T01:24:47.721Z,39.88
2022-11-27T01:25:47.737Z,39.84
2022-11-27T01:26:47.704Z,39.77
2022-11-27T01:27:47.720Z,39.88
2022-11-27T01:28:47.657Z,39.77
2022-11-27T01:29:47.671Z,39.96
2022-11-27T01:30:47.739Z,39.88
2022-11-27T01:31:47.733Z,40.00
2022-11-27T01:32:47.644Z,40.03
2022-11-27T01:33:47.608Z,40.19
2022-11-27T01:34:47.597Z,40.38
2022-11-27T01:35:47.612Z,40.11
2022-11-27T01:36:47.591Z,40.27
2022-11-27T01:37:47.645Z,40.23
2022-11-27T01:38:47.593Z,40.38
2022-11-27T01:39:47.519Z,40.30
2022-11-27T01:40:47.513Z,40.46
2022-11-27T01:41:47.507Z,40.38
2022-11-27T01:42:47.480Z,40.42
2022-11-27T01:43:47.486Z,40.42
2022-11-27T01:44:47.519Z,40.23
2022-11-27T01:45:47.450Z,40.42
2022-11-27T01:46:47.485Z,40.27
2022-11-27T01:47:47.437Z,40.50
2022-11-27T01:48:47.434Z,40.50
2022-11-27T01:49:47.438Z,40.70
2022-11-27T01:50:47.377Z,40.70
2022-11-27T01:51:47.376Z,40.78
2022-11-27T01:52:47.357Z,40.81
2022-11-27T01:53:47.385Z,40.74
2022-11-27T01:54:47.311Z,41.01
2022-11-27T01:55:47.325Z,40.81
2022-11-27T01:56:47.351Z,40.89
2022-11-27T01:57:47.387Z,40.78
2022-11-27T01:58:47.267Z,40.85
2022-11-27T01:59:47.262Z,40.85
2022-11-27T02:00:47.284Z,41.05
2022-11-27T02:01:47.284Z,40.78
2022-11-27T02:02:47.300Z,41.01
2022-11-27T02:03:47.197Z,40.97
2022-11-27T02:04:47.249Z,41.05
2022-11-27T02:05:47.272Z,41.05
2022-11-27T02:06:47.186Z,41.13
2022-11-27T02:07:47.362Z,41.13
2022-11-27T02:08:47.137Z,41.05
2022-11-27T02:09:47.134Z,40.93
2022-11-27T02:10:47.127Z,41.17
2022-11-27T02:11:47.127Z,40.89
2022-11-27T02:12:47.112Z,40.97
2022-11-27T02:13:47.161Z,41.13
2022-11-27T02:14:47.099Z,41.13
2022-11-27T02:15:47.094Z,41.26
2022-11-27T02:16:47.086Z,41.26
2022-11-27T02:17:47.055Z,41.46
2022-11-27T02:18:46.995Z,41.10
2022-11-27T02:19:47.039Z,41.75
2022-11-27T02:20:47.014Z,41.58
2022-11-27T02:21:47.059Z,41.71
2022-11-27T02:22:46.948Z,41.88
2022-11-27T02:23:46.959Z,41.75
2022-11-27T02:24:47.024Z,41.92
2022-11-27T02:25:46.929Z,41.92
2022-11-27T02:26:46.891Z,42.21
2022-11-27T02:27:46.959Z,42.13
2022-11-27T02:28:46.939Z,41.75
2022-11-27T02:29:47.000Z,41.88
2022-11-27T02:30:47.025Z,42.56
2022-11-27T02:31:46.990Z,42.17
2022-11-27T02:32:46.899Z,42.25
2022-11-27T02:33:46.866Z,42.38
2022-11-27T02:34:46.806Z,42.30
2022-11-27T02:35:46.811Z,42.38
2022-11-27T02:36:46.859Z,42.38
2022-11-27T02:37:46.893Z,42.34
2022-11-27T02:38:46.767Z,42.30
2022-11-27T02:39:46.798Z,42.60
2022-11-27T02:40:46.892Z,42.04
2022-11-27T02:41:46.815Z,42.34
2022-11-27T02:42:46.859Z,42.64
2022-11-27T02:43:46.807Z,42.43
2022-11-27T02:44:46.696Z,42.38
2022-11-27T02:45:46.835Z,42.64
2022-11-27T02:46:46.799Z,42.77
2022-11-27T02:47:46.657Z,42.30
2022-11-27T02:48:46.747Z,42.38
2022-11-27T02:49:46.596Z,42.69
2022-11-27T02:50:46.607Z,43.08
2022-11-27T02:51:46.577Z,42.60
2022-11-27T02:52:46.572Z,42.69
2022-11-27T02:53:46.614Z,42.77
2022-11-27T02:54:46.532Z,43.35
2022-11-27T02:55:46.571Z,43.08
2022-11-27T02:56:46.548Z,42.90
2022-11-27T02:57:46.511Z,43.35
2022-11-27T02:58:46.476Z,43.44
2022-11-27T02:59:46.482Z,43.30
2022-11-27T03:00:46.490Z,43.75
2022-11-27T03:01:46.499Z,43.57
2022-11-27T03:02:46.637Z,44.03
2022-11-27T03:03:46.408Z,43.80
2022-11-27T03:04:46.399Z,43.57
2022-11-27T03:05:46.448Z,43.89
2022-11-27T03:06:46.400Z,43.75
2022-11-27T03:07:46.411Z,44.26
2022-11-27T03:08:46.355Z,43.85
2022-11-27T03:09:46.427Z,44.22
2022-11-27T03:10:46.348Z,44.31
2022-11-27T03:11:46.339Z,43.80
2022-11-27T03:12:46.463Z,44.40
2022-11-27T03:13:46.296Z,43.80
2022-11-27T03:14:46.255Z,43.85
2022-11-27T03:15:46.425Z,43.94
2022-11-27T03:16:46.230Z,44.12
2022-11-27T03:17:46.217Z,44.22
2022-11-27T03:18:46.262Z,44.17
2022-11-27T03:19:46.272Z,44.97
2022-11-27T03:20:46.186Z,44.59
2022-11-27T03:21:46.174Z,44.45
2022-11-27T03:22:46.164Z,44.40
2022-11-27T03:23:46.218Z,45.02
2022-11-27T03:24:46.202Z,44.45
2022-11-27T03:25:46.189Z,45.07
2022-11-27T03:26:46.124Z,45.07
2022-11-27T03:27:46.174Z,44.45
2022-11-27T03:28:46.085Z,45.27
2022-11-27T03:29:46.251Z,45.22
2022-11-27T03:30:46.062Z,45.36
2022-11-27T03:31:46.089Z,45.46
2022-11-27T03:32:46.012Z,45.36
2022-11-27T03:33:46.042Z,45.51
2022-11-27T03:34:46.027Z,45.12
2022-11-27T03:35:46.029Z,45.22
2022-11-27T03:36:45.954Z,45.71
2022-11-27T03:37:45.959Z,45.27
2022-11-27T03:38:45.985Z,45.41
2022-11-27T03:39:45.934Z,46.01
2022-11-27T03:40:46.045Z,45.61
2022-11-27T03:41:45.912Z,45.66
2022-11-27T03:42:45.942Z,46.11
2022-11-27T03:43:45.900Z,45.71
2022-11-27T03:44:45.924Z,46.01
2022-11-27T03:45:45.860Z,46.21
2022-11-27T03:46:45.936Z,46.16
2022-11-27T03:47:45.964Z,46.16
2022-11-27T03:48:45.946Z,46.26
2022-11-27T03:49:45.845Z,46.94
2022-11-27T03:50:45.838Z,46.42
2022-11-27T03:51:45.863Z,46.68
2022-11-27T03:52:45.790Z,46.57
2022-11-27T03:53:45.843Z,46.68
2022-11-27T03:54:45.831Z,46.73
2022-11-27T03:55:45.744Z,46.89
2022-11-27T03:56:45.694Z,46.94
2022-11-27T03:57:45.729Z,46.73
2022-11-27T03:58:45.691Z,47.07
2022-11-27T03:59:45.679Z,46.99
2022-11-27T04:00:45.645Z,47.04
2022-11-27T04:01:45.683Z,47.04
2022-11-27T04:02:45.627Z,47.17
2022-11-27T04:03:45.760Z,47.33
2022-11-27T04:04:45.608Z,47.39
2022-11-27T04:05:45.593Z,47.58
2022-11-27T04:06:45.630Z,47.60
2022-11-27T04:07:45.621Z,47.58
2022-11-27T04:08:45.560Z,47.66
2022-11-27T04:09:45.577Z,47.77
2022-11-27T04:10:45.596Z,48.01
2022-11-27T04:11:45.531Z,47.85
2022-11-27T04:12:45.491Z,47.93
2022-11-27T04:13:45.527Z,48.21
2022-11-27T04:14:45.513Z,48.21
2022-11-27T04:15:45.525Z,48.24
2022-11-27T04:16:45.472Z,48.32
2022-11-27T04:17:45.448Z,48.37
2022-11-27T04:18:45.469Z,48.49
2022-11-27T04:19:45.437Z,48.57
2022-11-27T04:20:45.485Z,48.65
2022-11-27T04:21:45.392Z,48.74
2022-11-27T04:22:45.372Z,48.88
2022-11-27T04:23:45.390Z,48.88
2022-11-27T04:24:45.432Z,48.88
2022-11-27T04:25:45.358Z,48.80
2022-11-27T04:26:45.326Z,48.97
2022-11-27T04:27:45.298Z,49.23
2022-11-27T04:28:45.281Z,49.14
2022-11-27T04:29:45.288Z,49.26
2022-11-27T04:30:45.287Z,49.26
2022-11-27T04:31:45.290Z,49.58
2022-11-27T04:32:45.213Z,49.55
2022-11-27T04:33:45.233Z,49.81
2022-11-27T04:34:45.263Z,49.78
2022-11-27T04:35:45.208Z,49.58
2022-11-27T04:36:45.186Z,49.84
2022-11-27T04:37:45.148Z,49.78
2022-11-27T04:38:45.220Z,49.81
2022-11-27T04:39:45.143Z,49.93
2022-11-27T04:40:45.168Z,50.02
2022-11-27T04:41:45.206Z,49.99
2022-11-27T04:42:45.093Z,50.02
2022-11-27T04:43:45.124Z,49.81
2022-11-27T04:44:45.078Z,50.26
2022-11-27T04:45:45.074Z,50.17
2022-11-27T04:46:45.143Z,50.35
2022-11-27T04:47:45.136Z,50.47
2022-11-27T04:48:45.035Z,50.47
2022-11-27T04:49:45.028Z,50.41
2022-11-27T04:50:45.010Z,50.50
2022-11-27T04:51:45.008Z,50.53
2022-11-27T04:52:44.957Z,50.97
2022-11-27T04:53:44.959Z,50.87
2022-11-27T04:54:44.964Z,51.03
2022-11-27T04:55:44.910Z,51.06
2022-11-27T04:56:44.955Z,51.15
2022-11-27T04:57:44.971Z,51.21
2022-11-27T04:58:44.890Z,51.28
2022-11-27T04:59:44.882Z,51.31
2022-11-27T05:00:44.935Z,51.43
2022-11-27T05:01:44.852Z,51.56
2022-11-27T05:02:44.933Z,51.40
2022-11-27T05:03:44.823Z,51.82
2022-11-27T05:04:44.955Z,51.88
2022-11-27T05:05:44.870Z,51.91
2022-11-27T05:06:44.795Z,51.94
2022-11-27T05:07:44.822Z,51.91
2022-11-27T05:08:44.780Z,51.94
2022-11-27T05:09:44.827Z,52.17
2022-11-27T05:10:44.748Z,52.07
2022-11-27T05:11:44.719Z,52.07
2022-11-27T05:12:44.864Z,52.07
2022-11-27T05:13:44.769Z,52.01
2022-11-27T05:14:44.686Z,51.82
2022-11-27T05:15:44.719Z,51.78
2022-11-27T05:16:44.684Z,51.94
2022-11-27T05:17:44.639Z,52.01
2022-11-27T05:18:44.668Z,51.94
2022-11-27T05:19:44.647Z,52.04
2022-11-27T05:20:44.589Z,52.01
2022-11-27T05:21:44.676Z,52.14
2022-11-27T05:22:44.643Z,52.17
2022-11-27T05:23:44.543Z,52.14
2022-11-27T05:24:44.603Z,52.20
2022-11-27T05:25:44.562Z,52.20
2022-11-27T05:26:44.531Z,52.14
2022-11-27T05:27:44.526Z,52.11
2022-11-27T05:28:44.533Z,52.37
2022-11-27T05:29:44.466Z,52.43
2022-11-27T05:30:44.479Z,52.20
2022-11-27T05:32:55.622Z,56.58
2022-11-27T05:33:56.617Z,55.90
2022-11-27T05:34:56.593Z,55.53
2022-11-27T05:35:56.601Z,55.64
2022-11-27T05:36:56.606Z,55.31
2022-11-27T05:37:56.565Z,55.16
2022-11-27T05:38:56.568Z,55.16
2022-11-27T05:39:56.535Z,54.80
2022-11-27T05:40:56.523Z,54.87
2022-11-27T05:41:56.499Z,54.51
2022-11-27T05:42:56.503Z,54.23
2022-11-27T05:43:56.489Z,54.23
2022-11-27T05:44:58.594Z,54.16
2022-11-27T05:45:56.443Z,54.09
2022-11-27T05:46:56.492Z,53.92
2022-11-27T05:47:56.430Z,54.02
2022-11-27T05:48:56.416Z,53.92
2022-11-27T05:49:56.389Z,54.06
2022-11-27T05:50:56.385Z,53.74
2022-11-27T05:51:56.376Z,53.64
2022-11-27T05:52:56.371Z,53.54
2022-11-27T05:53:56.344Z,53.37
2022-11-27T05:54:56.336Z,53.37
2022-11-27T05:55:56.343Z,53.13
2022-11-27T05:56:56.321Z,53.17
2022-11-27T05:57:56.369Z,52.83
2022-11-27T05:58:56.292Z,52.76
2022-11-27T05:59:56.280Z,52.83
2022-11-27T06:00:56.256Z,52.73
2022-11-27T06:01:56.288Z,52.93
2022-11-27T06:02:56.408Z,52.90
2022-11-27T06:03:56.240Z,52.70
2022-11-27T06:04:56.202Z,52.56
2022-11-27T06:05:56.187Z,52.53
2022-11-27T06:06:56.211Z,52.83
2022-11-27T06:07:56.261Z,52.60
2022-11-27T06:08:56.165Z,52.47
2022-11-27T06:09:56.155Z,53.03
2022-11-27T06:10:56.148Z,53.23
2022-11-27T06:11:56.108Z,53.30
2022-11-27T06:12:56.096Z,53.30
2022-11-27T06:13:56.097Z,53.50
2022-11-27T06:14:56.106Z,53.64
2022-11-27T06:15:56.113Z,53.44
2022-11-27T06:16:56.092Z,53.61
2022-11-27T06:17:56.032Z,53.68
2022-11-27T06:18:56.033Z,53.64
2022-11-27T06:19:55.997Z,53.92
2022-11-27T06:20:56.027Z,53.99
2022-11-27T06:21:55.971Z,54.44
2022-11-27T06:22:56.016Z,54.34
2022-11-27T06:23:55.947Z,54.58
2022-11-27T06:24:55.969Z,54.55
2022-11-27T06:25:55.919Z,54.69
2022-11-27T06:26:55.910Z,54.51
2022-11-27T06:27:55.915Z,54.94
2022-11-27T06:28:55.888Z,54.55
2022-11-27T06:29:55.894Z,54.80
2022-11-27T06:30:55.875Z,54.48
2022-11-27T06:31:55.904Z,54.73
2022-11-27T06:32:55.853Z,54.94
2022-11-27T06:33:55.839Z,55.75
2022-11-27T06:34:55.811Z,55.42
2022-11-27T06:35:55.824Z,55.49
2022-11-27T06:36:55.781Z,55.53
2022-11-27T06:37:55.766Z,55.78
2022-11-27T06:38:55.801Z,55.86
2022-11-27T06:39:55.769Z,55.93
2022-11-27T06:40:55.752Z,56.08
2022-11-27T06:41:55.725Z,56.27
2022-11-27T06:42:55.714Z,56.39
2022-11-27T06:43:55.757Z,56.42
2022-11-27T06:44:55.765Z,56.24
2022-11-27T06:45:55.775Z,56.39
2022-11-27T06:46:55.681Z,56.35
2022-11-27T06:47:55.675Z,56.24
2022-11-27T06:48:55.751Z,56.42
2022-11-27T06:49:55.658Z,56.69
2022-11-27T06:50:55.647Z,56.50
2022-11-27T06:51:55.644Z,56.62
2022-11-27T06:52:55.630Z,56.69
2022-11-27T06:53:55.583Z,56.85
2022-11-27T06:54:55.588Z,56.50
2022-11-27T06:55:55.555Z,56.85
2022-11-27T06:56:55.569Z,56.81
2022-11-27T06:57:55.534Z,57.00
2022-11-27T06:58:55.539Z,56.77
2022-11-27T06:59:55.502Z,56.73
2022-11-27T07:00:55.514Z,56.77
2022-11-27T07:01:55.511Z,56.96
2022-11-27T07:02:55.455Z,56.85
2022-11-27T07:03:55.435Z,56.85
2022-11-27T07:04:55.439Z,57.04
2022-11-27T07:05:55.409Z,56.85
2022-11-27T07:06:55.403Z,57.00
2022-11-27T07:07:55.409Z,56.77
2022-11-27T07:08:55.361Z,56.62
2022-11-27T07:09:55.355Z,56.62
2022-11-27T07:10:55.366Z,56.85
2022-11-27T07:11:55.332Z,56.50
2022-11-27T07:12:55.328Z,56.65
2022-11-27T07:13:55.317Z,56.39
2022-11-27T07:14:55.295Z,56.31
2022-11-27T07:15:55.327Z,56.65
2022-11-27T07:16:55.357Z,56.35
2022-11-27T07:17:55.254Z,56.73
2022-11-27T07:18:55.242Z,56.42
2022-11-27T07:19:55.227Z,56.01
2022-11-27T07:20:56.835Z,56.16
2022-11-27T07:21:55.217Z,56.42
2022-11-27T07:22:55.229Z,56.20
2022-11-27T07:23:55.175Z,55.86
2022-11-27T07:24:55.162Z,56.31
2022-11-27T07:25:55.165Z,56.27
2022-11-27T07:26:55.133Z,56.16
2022-11-27T07:27:55.128Z,56.20
2022-11-27T07:28:55.137Z,56.31
2022-11-27T07:29:55.124Z,55.82
2022-11-27T07:30:55.121Z,56.12
2022-11-27T07:31:55.248Z,56.20
2022-11-27T07:32:55.100Z,56.39
2022-11-27T07:33:55.071Z,56.50
2022-11-27T07:34:55.033Z,56.31
2022-11-27T07:35:55.071Z,56.62
2022-11-27T07:36:55.055Z,56.62
2022-11-27T07:37:55.036Z,56.85
2022-11-27T07:38:55.048Z,56.85
2022-11-27T07:40:02.474Z,56.88
2022-11-27T07:40:55.009Z,56.85
2022-11-27T07:41:57.254Z,57.04
2022-11-27T07:42:54.989Z,57.19
2022-11-27T07:43:55.017Z,57.23
2022-11-27T07:44:54.956Z,57.59
2022-11-27T07:45:55.023Z,57.12
2022-11-27T07:46:54.919Z,56.96
2022-11-27T07:47:54.929Z,57.16
2022-11-27T07:48:54.903Z,57.27
2022-11-27T07:49:54.932Z,57.27
2022-11-27T07:50:54.847Z,57.19
2022-11-27T07:51:54.874Z,57.55
2022-11-27T07:52:55.112Z,57.55
2022-11-27T07:53:54.833Z,57.51
2022-11-27T07:54:54.782Z,57.27
2022-11-27T07:55:54.775Z,57.35
2022-11-27T07:56:54.738Z,57.39
2022-11-27T07:57:54.812Z,56.96
2022-11-27T07:58:54.735Z,57.16
2022-11-27T07:59:54.704Z,56.96
2022-11-27T08:00:54.794Z,56.88
2022-11-27T08:01:54.730Z,56.88
2022-11-27T08:02:54.661Z,57.19
2022-11-27T08:03:54.721Z,57.16
2022-11-27T08:04:54.733Z,57.35
2022-11-27T08:05:54.625Z,57.59
2022-11-27T08:06:54.609Z,57.75
2022-11-27T08:07:54.702Z,57.87
2022-11-27T08:08:54.583Z,58.27
2022-11-27T08:09:54.634Z,59.34
2022-11-27T08:10:54.575Z,58.80
2022-11-27T08:11:54.576Z,59.30
2022-11-27T08:12:54.560Z,59.51
2022-11-27T08:13:54.535Z,59.72
2022-11-27T08:14:54.516Z,59.85
2022-11-27T08:15:54.503Z,60.15
2022-11-27T08:16:54.617Z,60.20
2022-11-27T08:17:54.498Z,60.20
2022-11-27T08:18:54.476Z,60.54
2022-11-27T08:19:54.472Z,60.85
2022-11-27T08:20:54.451Z,60.90
2022-11-27T08:21:54.475Z,61.03
2022-11-27T08:22:59.532Z,61.75
2022-11-27T08:23:54.451Z,60.59
2022-11-27T08:24:54.440Z,61.70
2022-11-27T08:25:54.437Z,61.30
2022-11-27T08:26:54.375Z,62.30
2022-11-27T08:27:54.432Z,62.77
2022-11-27T08:28:54.356Z,63.53
2022-11-27T08:29:54.383Z,63.82
2022-11-27T08:30:54.340Z,64.46
2022-11-27T08:31:54.418Z,64.86
2022-11-27T08:32:54.342Z,65.31
2022-11-27T08:33:54.337Z,66.14
2022-11-27T08:34:54.294Z,66.93
2022-11-27T08:35:54.267Z,67.58
2022-11-27T08:36:54.305Z,68.52
2022-11-27T08:37:54.288Z,68.80
2022-11-27T08:38:54.240Z,68.69
2022-11-27T08:39:54.229Z,68.69
2022-11-27T08:40:54.194Z,69.31
2022-11-27T08:41:54.185Z,68.35
2022-11-27T08:42:54.154Z,69.20
2022-11-27T08:43:54.178Z,68.07
2022-11-27T08:44:54.130Z,67.91
2022-11-27T08:45:54.178Z,66.61
2022-11-27T08:46:54.107Z,66.99
2022-11-27T08:47:54.100Z,66.93
2022-11-27T08:48:54.072Z,67.42
2022-11-27T08:49:54.063Z,69.08
2022-11-27T08:50:54.081Z,72.06
2022-11-27T08:51:54.070Z,75.91
2022-11-27T08:52:54.057Z,78.69
2022-11-27T08:53:54.032Z,83.31
2022-11-27T08:54:57.542Z,87.95
2022-11-27T08:55:54.019Z,94.60
2022-11-27T08:56:54.030Z,98.07
2022-11-27T08:57:54.006Z,102.20
2022-11-27T08:58:54.005Z,105.35
2022-11-27T08:59:53.957Z,107.99
2022-11-27T09:00:53.988Z,113.02
2022-11-27T09:01:53.925Z,117.13
2022-11-27T09:02:53.897Z,121.38
2022-11-27T09:03:53.944Z,126.13
2022-11-27T09:04:53.896Z,130.05
2022-11-27T09:05:53.875Z,137.63
2022-11-27T09:06:58.126Z,144.02
2022-11-27T09:07:53.866Z,145.78
2022-11-27T09:08:53.841Z,147.19
2022-11-27T09:09:53.849Z,150.76
2022-11-27T09:10:53.813Z,155.96
2022-11-27T09:11:53.782Z,160.29
2022-11-27T09:12:53.789Z,164.38
2022-11-27T09:13:53.762Z,166.34
2022-11-27T09:14:53.769Z,170.57
2022-11-27T09:15:53.751Z,172.50
2022-11-27T09:16:53.815Z,173.57
2022-11-27T09:17:53.728Z,174.84
2022-11-27T09:18:53.685Z,174.66
2022-11-27T09:19:53.685Z,176.13
2022-11-27T09:20:53.692Z,183.06
2022-11-27T09:21:53.673Z,185.07
2022-11-27T09:22:53.675Z,188.24
2022-11-27T09:23:53.666Z,188.24
2022-11-27T09:24:53.635Z,186.74
2022-11-27T09:25:53.644Z,185.90
2022-11-27T09:26:54.044Z,186.43
2022-11-27T09:27:54.417Z,191.08
2022-11-27T09:28:53.580Z,190.31
2022-11-27T09:29:53.545Z,192.08
2022-11-27T09:30:53.533Z,194.12
2022-11-27T09:31:53.597Z,197.50
2022-11-27T09:32:53.523Z,200.01
2022-11-27T09:33:53.569Z,204.87
2022-11-27T09:34:53.565Z,209.43
2022-11-27T09:35:53.477Z,210.09
2022-11-27T09:36:53.487Z,214.75
2022-11-27T09:37:53.511Z,219.48
2022-11-27T09:38:53.452Z,223.65
2022-11-27T09:39:53.417Z,229.25
2022-11-27T09:40:53.436Z,228.46
2022-11-27T09:41:53.416Z,227.04
2022-11-27T09:42:53.358Z,227.82
2022-11-27T09:43:53.451Z,233.15
2022-11-27T09:44:53.325Z,234.48
2022-11-27T09:45:53.406Z,237.69
2022-11-27T09:46:53.307Z,242.59
2022-11-27T09:47:53.434Z,244.94
2022-11-27T09:48:53.296Z,249.39
2022-11-27T09:49:53.294Z,251.10
2022-11-27T09:50:53.284Z,258.19
2022-11-27T09:51:53.291Z,262.51
2022-11-27T09:52:53.253Z,268.06
2022-11-27T09:53:53.217Z,272.27
2022-11-27T09:54:53.320Z,277.09
2022-11-27T09:55:53.214Z,276.39
2022-11-27T09:56:53.186Z,279.91
2022-11-27T09:57:53.173Z,285.24
2022-11-27T09:58:53.198Z,291.82
2022-11-27T09:59:53.179Z,291.56
2022-11-27T10:00:53.148Z,286.73
2022-11-27T10:01:53.294Z,292.33
2022-11-27T10:02:53.300Z,300.33
2022-11-27T10:03:53.092Z,309.94
2022-11-27T10:05:21.348Z,309.94
2022-11-27T10:05:53.140Z,312.89
2022-11-27T10:06:53.066Z,312.29
2022-11-27T10:07:53.144Z,315.28
2022-11-27T10:08:53.082Z,321.12
2022-11-27T10:09:53.037Z,327.18
2022-11-27T10:10:53.027Z,330.80
2022-11-27T10:11:53.059Z,340.02
2022-11-27T10:12:53.023Z,352.01
2022-11-27T10:13:52.996Z,357.36
2022-11-27T10:14:52.965Z,363.27
2022-11-27T10:15:52.944Z,362.87
2022-11-27T10:16:53.025Z,362.47
2022-11-27T10:17:52.908Z,360.89
2022-11-27T10:18:52.875Z,356.97
2022-11-27T10:19:52.873Z,358.14
2022-11-27T10:20:52.891Z,362.47
2022-11-27T10:21:52.872Z,368.97
2022-11-27T10:22:52.838Z,376.57
2022-11-27T10:23:52.842Z,374.00
2022-11-27T10:24:52.814Z,375.28
2022-11-27T10:25:52.804Z,377.00
2022-11-27T10:26:52.799Z,370.63
2022-11-27T10:27:52.772Z,371.47
2022-11-27T10:28:52.748Z,377.43
2022-11-27T10:29:52.753Z,389.83
2022-11-27T10:30:52.757Z,393.03
2022-11-27T10:31:52.819Z,396.29
2022-11-27T10:32:55.416Z,400.08
2022-11-27T10:33:52.727Z,393.72
2022-11-27T10:34:52.683Z,388.24
2022-11-27T10:35:52.675Z,393.49
2022-11-27T10:36:52.637Z,399.60
2022-11-27T10:37:52.670Z,402.00
2022-11-27T10:38:52.648Z,405.65
2022-11-27T10:39:52.607Z,412.40
2022-11-27T10:40:52.598Z,410.38
2022-11-27T10:41:52.596Z,408.88
2022-11-27T10:42:52.583Z,407.63
2022-11-27T10:43:52.594Z,402.48
2022-11-27T10:44:52.562Z,395.12
2022-11-27T10:45:52.643Z,386.45
2022-11-27T10:46:52.521Z,377.43
2022-11-27T10:47:52.531Z,374.42
2022-11-27T10:48:52.506Z,375.71
2022-11-27T10:49:52.519Z,377.43
2022-11-27T10:50:52.490Z,384.89
2022-11-27T10:51:52.484Z,384.67
2022-11-27T10:52:52.760Z,380.73
2022-11-27T10:53:52.455Z,370.22
2022-11-27T10:54:52.436Z,364.48
2022-11-27T10:55:52.396Z,360.89
2022-11-27T10:56:52.402Z,356.97
2022-11-27T10:57:52.369Z,356.97
2022-11-27T10:58:52.384Z,355.82
2022-11-27T10:59:52.367Z,353.52
2022-11-27T11:00:52.404Z,354.29
2022-11-27T11:01:52.485Z,346.46
2022-11-27T11:02:52.304Z,346.82
2022-11-27T11:03:52.324Z,343.21
2022-11-27T11:05:16.215Z,342.14
2022-11-27T11:06:18.773Z,338.97
2022-11-27T11:06:52.264Z,339.32
2022-11-27T11:07:52.362Z,343.93
2022-11-27T11:08:55.031Z,343.21
2022-11-27T11:09:52.231Z,336.89
2022-11-27T11:10:52.232Z,337.23
2022-11-27T11:11:52.416Z,340.37
2022-11-27T11:12:52.180Z,341.08
2022-11-27T11:13:52.159Z,337.93
2022-11-27T11:14:52.150Z,348.29
2022-11-27T11:15:52.152Z,360.10
2022-11-27T11:16:52.189Z,366.51
2022-11-27T11:17:52.118Z,364.08
2022-11-27T11:18:52.093Z,361.28
2022-11-27T11:19:52.096Z,353.90
2022-11-27T11:20:52.064Z,352.39
2022-11-27T11:21:52.051Z,350.52
2022-11-27T11:22:52.043Z,358.53
2022-11-27T11:23:52.031Z,360.89
2022-11-27T11:24:52.057Z,365.69
2022-11-27T11:25:52.017Z,370.22
2022-11-27T11:26:52.021Z,374.85
2022-11-27T11:27:52.011Z,382.04
2022-11-27T11:28:51.995Z,380.52
2022-11-27T11:29:51.977Z,375.28
2022-11-27T11:30:51.952Z,371.89
2022-11-27T11:31:52.045Z,369.39
2022-11-27T11:32:51.921Z,362.87
2022-11-27T11:33:51.931Z,362.08
2022-11-27T11:34:56.251Z,352.39
2022-11-27T11:35:51.880Z,341.43
2022-11-27T11:36:51.879Z,334.83
2022-11-27T11:37:51.832Z,327.51
2022-11-27T11:38:51.886Z,325.57
2022-11-27T11:39:51.841Z,326.86
2022-11-27T11:40:52.362Z,325.57
2022-11-27T11:41:51.814Z,325.57
2022-11-27T11:42:51.784Z,330.14
2022-11-27T11:43:51.819Z,338.27
2022-11-27T11:44:51.771Z,345.37
2022-11-27T11:45:51.812Z,349.03
2022-11-27T11:46:51.740Z,353.90
2022-11-27T11:47:51.744Z,364.48
2022-11-27T11:48:51.692Z,364.88
2022-11-27T11:49:51.681Z,370.63
2022-11-27T11:50:53.533Z,380.08
2022-11-27T11:51:54.608Z,390.28
2022-11-27T11:52:53.671Z,397.94
2022-11-27T11:53:53.400Z,404.43
2022-11-27T11:54:53.978Z,405.65
2022-11-27T11:55:53.075Z,412.91
2022-11-27T11:56:54.008Z,425.24
2022-11-27T11:57:54.419Z,426.87
2022-11-27T11:58:53.094Z,437.18
2022-11-27T11:59:53.413Z,442.97
2022-11-27T12:01:19.353Z,448.61
2022-11-27T12:01:53.072Z,449.82
2022-11-27T12:02:58.655Z,448.91
2022-11-27T12:03:52.871Z,451.03
2022-11-27T12:04:53.180Z,452.25
2022-11-27T12:05:53.145Z,451.95
2022-11-27T12:06:52.640Z,448.01
2022-11-27T12:07:53.681Z,452.25
2022-11-27T12:08:53.481Z,458.76
2022-11-27T12:09:53.274Z,464.81
2022-11-27T12:10:54.101Z,469.05
2022-11-27T12:11:53.802Z,478.43
2022-11-27T12:12:52.940Z,478.43
2022-11-27T12:14:07.272Z,464.81
2022-11-27T12:14:53.002Z,451.03
2022-11-27T12:15:53.012Z,437.76
2022-11-27T12:16:52.589Z,425.78
2022-11-27T12:17:51.389Z,417.29
2022-11-27T12:18:51.347Z,405.16
2022-11-27T12:19:51.317Z,395.58
2022-11-27T12:20:51.349Z,387.79
2022-11-27T12:21:51.288Z,368.56
2022-11-27T12:22:51.267Z,361.68
2022-11-27T12:23:51.253Z,356.59
2022-11-27T12:24:51.248Z,352.39
2022-11-27T12:25:51.226Z,345.73
2022-11-27T12:26:51.222Z,336.89
2022-11-27T12:27:51.224Z,327.84
2022-11-27T12:28:57.513Z,328.49
2022-11-27T12:29:51.208Z,327.18
2022-11-27T12:30:51.166Z,320.50
2022-11-27T12:31:51.189Z,319.26
2022-11-27T12:32:51.142Z,312.59
2022-11-27T12:33:51.121Z,309.94
2022-11-27T12:34:51.111Z,305.06
2022-11-27T12:35:51.094Z,296.55
2022-11-27T12:36:51.085Z,289.00
2022-11-27T12:37:51.090Z,278.26
2022-11-27T12:38:51.065Z,267.20
2022-11-27T12:39:57.046Z,259.82
2022-11-27T12:40:51.030Z,253.42
2022-11-27T12:41:50.993Z,248.82
2022-11-27T12:42:50.984Z,247.33
2022-11-27T12:43:50.987Z,244.94
2022-11-27T12:44:50.958Z,242.06
2022-11-27T12:45:50.991Z,240.64
2022-11-27T12:46:51.014Z,238.72